createdAt,value
2023-03-27T00:00:58.334Z,4.88
2023-03-27T00:01:58.114Z,4.88
2023-03-27T00:02:58.591Z,4.88
2023-03-27T00:03:58.806Z,4.88
2023-03-27T00:04:58.891Z,4.88
2023-03-27T00:05:59.039Z,4.88
2023-03-27T00:06:58.830Z,4.88
2023-03-27T00:07:59.288Z,4.88
2023-03-27T00:08:59.075Z,5.04
2023-03-27T00:09:59.173Z,4.88
2023-03-27T00:10:59.325Z,5.04
2023-03-27T00:11:59.424Z,5.04
2023-03-27T00:12:59.577Z,5.04
2023-03-27T00:13:59.725Z,4.88
2023-03-27T00:14:59.877Z,5.04
2023-03-27T00:16:00.046Z,5.04
2023-03-27T00:17:00.253Z,5.12
2023-03-27T00:18:00.343Z,5.12
2023-03-27T00:19:00.435Z,4.88
2023-03-27T00:20:00.615Z,5.04
2023-03-27T00:21:00.747Z,5.04
2023-03-27T00:22:00.846Z,4.88
2023-03-27T00:23:00.986Z,4.88
2023-03-27T00:24:01.168Z,4.88
2023-03-27T00:25:01.310Z,4.88
2023-03-27T00:26:01.445Z,4.88
2023-03-27T00:27:01.598Z,4.8
2023-03-27T00:28:01.774Z,4.8
2023-03-27T00:29:01.902Z,4.72
2023-03-27T00:30:02.055Z,4.72
2023-03-27T00:31:02.227Z,4.8
2023-03-27T00:32:02.307Z,4.72
2023-03-27T00:33:02.498Z,4.72
2023-03-27T00:34:02.560Z,4.72
2023-03-27T00:35:02.709Z,4.72
2023-03-27T00:36:02.904Z,4.72
2023-03-27T00:37:03.010Z,4.72
2023-03-27T00:38:03.162Z,4.64
2023-03-27T00:39:03.318Z,4.72
2023-03-27T00:40:03.466Z,4.72
2023-03-27T00:41:03.655Z,4.72
2023-03-27T00:42:03.767Z,4.72
2023-03-27T00:43:03.921Z,4.64
2023-03-27T00:44:04.086Z,4.72
2023-03-27T00:45:04.222Z,4.64
2023-03-27T00:46:04.423Z,4.64
2023-03-27T00:47:04.482Z,4.64
2023-03-27T00:48:04.653Z,4.64
2023-03-27T00:49:04.791Z,4.72
2023-03-27T00:50:04.937Z,4.48
2023-03-27T00:51:05.087Z,4.48
2023-03-27T00:52:05.236Z,4.64
2023-03-27T00:53:05.392Z,4.64
2023-03-27T00:54:05.541Z,4.48
2023-03-27T00:55:05.640Z,4.48
2023-03-27T00:56:05.793Z,4.4
2023-03-27T00:57:05.978Z,4.32
2023-03-27T00:58:06.094Z,4.16
2023-03-27T00:59:06.260Z,4.08
2023-03-27T01:00:07.590Z,4.08
2023-03-27T01:01:06.527Z,4.08
2023-03-27T01:02:06.705Z,4
2023-03-27T01:03:06.885Z,3.92
2023-03-27T01:04:06.966Z,3.92
2023-03-27T01:05:07.111Z,3.84
2023-03-27T01:06:07.256Z,3.68
2023-03-27T01:07:07.414Z,3.52
2023-03-27T01:08:07.559Z,3.44
2023-03-27T01:09:07.711Z,3.44
2023-03-27T01:10:07.938Z,3.28
2023-03-27T01:11:08.009Z,3.28
2023-03-27T01:12:08.159Z,3.12
2023-03-27T01:13:08.311Z,3.12
2023-03-27T01:14:08.467Z,3.12
2023-03-27T01:15:08.617Z,3.04
2023-03-27T01:16:08.746Z,3.04
2023-03-27T01:17:08.823Z,3.12
2023-03-27T01:18:09.037Z,2.8
2023-03-27T01:19:09.129Z,2.72
2023-03-27T01:20:09.276Z,2.64
2023-03-27T01:21:09.422Z,2.4
2023-03-27T01:22:09.578Z,2.4
2023-03-27T01:23:09.735Z,2.32
2023-03-27T01:24:09.875Z,2.32
2023-03-27T01:25:10.028Z,2.24
2023-03-27T01:26:10.184Z,2.24
2023-03-27T01:27:10.336Z,2.08
2023-03-27T01:28:10.543Z,2
2023-03-27T01:29:10.636Z,1.92
2023-03-27T01:30:10.741Z,1.84
2023-03-27T01:31:10.995Z,1.84
2023-03-27T01:32:10.994Z,1.68
2023-03-27T01:33:11.163Z,1.68
2023-03-27T01:34:11.292Z,1.6
2023-03-27T01:35:11.446Z,1.6
2023-03-27T01:36:11.599Z,1.6
2023-03-27T01:37:11.756Z,1.6
2023-03-27T01:38:11.908Z,1.6
2023-03-27T01:39:12.001Z,1.52
2023-03-27T01:40:12.165Z,1.52
2023-03-27T01:41:12.304Z,1.52
2023-03-27T01:42:12.462Z,1.44
2023-03-27T01:43:12.567Z,1.52
2023-03-27T01:44:12.722Z,1.44
2023-03-27T01:45:12.863Z,1.28
2023-03-27T01:46:13.031Z,1.28
2023-03-27T01:47:13.167Z,1.2
2023-03-27T01:48:13.319Z,1.2
2023-03-27T01:49:13.470Z,1.2
2023-03-27T01:50:13.647Z,1.2
2023-03-27T01:51:13.724Z,1.2
2023-03-27T01:52:13.877Z,1.12
2023-03-27T01:53:14.025Z,1.12
2023-03-27T01:54:14.199Z,1.04
2023-03-27T01:55:14.328Z,1.04
2023-03-27T01:56:14.480Z,1.04
2023-03-27T01:57:14.680Z,1.04
2023-03-27T01:58:14.796Z,1.04
2023-03-27T01:59:14.934Z,0.88
2023-03-27T02:00:17.215Z,1.04
2023-03-27T02:01:15.254Z,1.04
2023-03-27T02:02:15.785Z,1.04
2023-03-27T02:03:15.953Z,0.8
2023-03-27T02:04:15.701Z,0.88
2023-03-27T02:05:15.831Z,0.88
2023-03-27T02:06:15.941Z,0.8
2023-03-27T02:07:16.095Z,0.88
2023-03-27T02:08:16.251Z,0.88
2023-03-27T02:09:16.403Z,0.88
2023-03-27T02:10:16.553Z,0.88
2023-03-27T02:11:16.699Z,0.8
2023-03-27T02:12:16.852Z,0.8
2023-03-27T02:13:16.961Z,0.8
2023-03-27T02:14:17.105Z,0.88
2023-03-27T02:15:22.755Z,0.8
2023-03-27T02:16:17.353Z,0.8
2023-03-27T02:17:17.465Z,0.8
2023-03-27T02:18:17.614Z,0.8
2023-03-27T02:19:17.766Z,0.72
2023-03-27T02:20:17.918Z,0.72
2023-03-27T02:21:18.073Z,0.72
2023-03-27T02:22:18.222Z,0.8
2023-03-27T02:23:18.372Z,0.8
2023-03-27T02:24:18.529Z,0.72
2023-03-27T02:25:18.627Z,0.8
2023-03-27T02:26:18.735Z,0.8
2023-03-27T02:27:18.876Z,0.72
2023-03-27T02:28:18.977Z,0.72
2023-03-27T02:29:19.092Z,0.8
2023-03-27T02:30:19.234Z,0.8
2023-03-27T02:31:33.434Z,0.72
2023-03-27T02:32:19.559Z,0.72
2023-03-27T02:33:19.673Z,0.8
2023-03-27T02:34:19.793Z,0.72
2023-03-27T02:35:19.964Z,0.64
2023-03-27T02:36:20.101Z,0.72
2023-03-27T02:37:20.264Z,0.72
2023-03-27T02:38:20.350Z,0.72
2023-03-27T02:39:20.447Z,0.64
2023-03-27T02:40:20.606Z,0.64
2023-03-27T02:41:20.747Z,0.72
2023-03-27T02:42:20.920Z,0.64
2023-03-27T02:43:21.062Z,0.64
2023-03-27T02:44:21.206Z,0.72
2023-03-27T02:45:21.352Z,0.64
2023-03-27T02:46:22.214Z,0.64
2023-03-27T02:47:21.559Z,0.64
2023-03-27T02:48:21.708Z,0.72
2023-03-27T02:49:21.816Z,0.72
2023-03-27T02:50:21.965Z,0.8
2023-03-27T02:51:22.120Z,0.8
2023-03-27T02:52:22.270Z,0.8
2023-03-27T02:53:22.420Z,0.8
2023-03-27T02:54:22.576Z,0.8
2023-03-27T02:55:22.727Z,0.72
2023-03-27T02:56:22.880Z,0.72
2023-03-27T02:57:24.906Z,0.72
2023-03-27T02:58:23.178Z,0.8
2023-03-27T02:59:23.334Z,0.8
2023-03-27T03:00:23.483Z,0.72
2023-03-27T03:01:23.656Z,0.72
2023-03-27T03:02:23.877Z,0.72
2023-03-27T03:03:23.921Z,0.8
2023-03-27T03:04:24.039Z,0.8
2023-03-27T03:05:24.145Z,0.8
2023-03-27T03:06:24.295Z,0.8
2023-03-27T03:07:24.443Z,0.8
2023-03-27T03:08:24.597Z,0.8
2023-03-27T03:09:24.757Z,0.8
2023-03-27T03:10:24.901Z,0.8
2023-03-27T03:11:25.057Z,0.8
2023-03-27T03:12:25.201Z,0.72
2023-03-27T03:13:25.354Z,0.72
2023-03-27T03:14:25.454Z,0.8
2023-03-27T03:15:25.609Z,0.8
2023-03-27T03:16:25.805Z,0.8
2023-03-27T03:17:25.913Z,0.8
2023-03-27T03:18:26.061Z,0.72
2023-03-27T03:19:26.217Z,1.04
2023-03-27T03:20:26.362Z,0.88
2023-03-27T03:21:26.513Z,0.88
2023-03-27T03:22:26.668Z,0.88
2023-03-27T03:23:26.824Z,0.72
2023-03-27T03:24:26.968Z,0.8
2023-03-27T03:25:27.077Z,1.04
2023-03-27T03:26:27.342Z,0.88
2023-03-27T03:27:27.377Z,0.72
2023-03-27T03:28:27.537Z,0.8
2023-03-27T03:29:27.634Z,0.8
2023-03-27T03:30:27.789Z,0.8
2023-03-27T03:31:27.980Z,1.04
2023-03-27T03:32:28.117Z,0.8
2023-03-27T03:33:28.216Z,0.8
2023-03-27T03:34:28.334Z,1.04
2023-03-27T03:35:28.519Z,0.8
2023-03-27T03:36:28.635Z,0.88
2023-03-27T03:37:28.897Z,0.88
2023-03-27T03:38:28.945Z,0.8
2023-03-27T03:39:29.655Z,0.8
2023-03-27T03:40:29.199Z,0.8
2023-03-27T03:41:29.583Z,0.8
2023-03-27T03:42:29.961Z,0.88
2023-03-27T03:43:29.598Z,0.8
2023-03-27T03:44:30.012Z,0.8
2023-03-27T03:46:30.535Z,1.04
2023-03-27T03:48:31.164Z,0.8
2023-03-27T03:50:31.365Z,0.8
2023-03-27T03:52:31.772Z,0.8
2023-03-27T03:54:32.102Z,1.04
2023-03-27T03:56:32.165Z,1.12
2023-03-27T03:58:34.307Z,1.04
2023-03-27T04:00:32.744Z,1.04
2023-03-27T04:02:33.212Z,1.04
2023-03-27T04:04:32.796Z,0.88
2023-03-27T04:05:33.156Z,0.88
2023-03-27T04:06:32.837Z,0.8
2023-03-27T04:07:32.985Z,0.72
2023-03-27T04:08:33.133Z,0.72
2023-03-27T04:09:33.285Z,0.8
2023-03-27T04:10:33.434Z,0.8
2023-03-27T04:11:33.534Z,0.8
2023-03-27T04:12:33.686Z,0.72
2023-03-27T04:13:33.838Z,0.72
2023-03-27T04:14:33.992Z,0.8
2023-03-27T04:15:34.142Z,0.72
2023-03-27T04:16:34.319Z,0.72
2023-03-27T04:17:34.454Z,0.88
2023-03-27T04:18:34.650Z,0.8
2023-03-27T04:19:34.699Z,0.72
2023-03-27T04:20:34.956Z,0.72
2023-03-27T04:21:35.001Z,0.8
2023-03-27T04:22:35.150Z,0.72
2023-03-27T04:23:35.313Z,0.72
2023-03-27T04:24:35.457Z,0.72
2023-03-27T04:25:35.605Z,0.8
2023-03-27T04:26:35.706Z,0.8
2023-03-27T04:27:35.815Z,0.72
2023-03-27T04:28:35.960Z,0.8
2023-03-27T04:29:36.114Z,0.8
2023-03-27T04:30:36.268Z,0.8
2023-03-27T04:31:36.445Z,0.8
2023-03-27T04:32:36.610Z,0.8
2023-03-27T04:33:36.678Z,0.88
2023-03-27T04:34:36.830Z,0.8
2023-03-27T04:35:36.998Z,0.8
2023-03-27T04:36:37.128Z,0.88
2023-03-27T04:37:37.282Z,1.04
2023-03-27T04:38:37.435Z,1.04
2023-03-27T04:39:37.541Z,0.88
2023-03-27T04:40:37.687Z,1.04
2023-03-27T04:41:37.836Z,1.04
2023-03-27T04:42:37.943Z,0.88
2023-03-27T04:43:38.092Z,0.88
2023-03-27T04:44:38.239Z,0.88
2023-03-27T04:45:38.388Z,0.88
2023-03-27T04:46:38.545Z,1.04
2023-03-27T04:47:38.683Z,0.88
2023-03-27T04:48:39.392Z,0.88
2023-03-27T04:49:38.953Z,1.04
2023-03-27T04:50:39.106Z,1.04
2023-03-27T04:51:39.255Z,1.04
2023-03-27T04:52:39.405Z,1.12
2023-03-27T04:53:39.553Z,1.12
2023-03-27T04:54:39.708Z,1.12
2023-03-27T04:55:39.855Z,1.04
2023-03-27T04:56:40.015Z,1.44
2023-03-27T04:57:40.116Z,1.2
2023-03-27T04:58:40.270Z,1.2
2023-03-27T04:59:40.414Z,1.2
2023-03-27T05:00:40.577Z,1.2
2023-03-27T05:01:40.759Z,1.2
2023-03-27T05:02:40.882Z,1.28
2023-03-27T05:03:41.028Z,1.28
2023-03-27T05:04:41.179Z,1.2
2023-03-27T05:05:41.333Z,1.28
2023-03-27T05:06:41.489Z,1.44
2023-03-27T05:07:41.629Z,1.28
2023-03-27T05:08:41.787Z,1.28
2023-03-27T05:09:41.929Z,1.2
2023-03-27T05:10:42.078Z,1.2
2023-03-27T05:11:42.232Z,1.2
2023-03-27T05:12:42.387Z,1.2
2023-03-27T05:13:42.540Z,1.12
2023-03-27T05:14:42.955Z,1.12
2023-03-27T05:15:42.737Z,1.12
2023-03-27T05:16:42.929Z,1.12
2023-03-27T05:17:43.044Z,1.2
2023-03-27T05:18:43.144Z,1.2
2023-03-27T05:19:43.291Z,1.2
2023-03-27T05:20:43.457Z,1.2
2023-03-27T05:21:44.178Z,1.28
2023-03-27T05:22:43.712Z,1.2
2023-03-27T05:23:43.858Z,1.12
2023-03-27T05:24:44.002Z,1.12
2023-03-27T05:25:44.632Z,1.12
2023-03-27T05:26:44.257Z,1.12
2023-03-27T05:27:44.412Z,1.12
2023-03-27T05:28:44.521Z,1.04
2023-03-27T05:29:46.562Z,1.12
2023-03-27T05:30:44.833Z,1.2
2023-03-27T05:31:44.967Z,1.44
2023-03-27T05:32:45.790Z,1.28
2023-03-27T05:33:45.220Z,1.2
2023-03-27T05:34:45.317Z,1.44
2023-03-27T05:35:45.488Z,1.44
2023-03-27T05:36:45.638Z,1.44
2023-03-27T05:37:45.770Z,1.44
2023-03-27T05:38:45.921Z,1.44
2023-03-27T05:39:46.022Z,1.2
2023-03-27T05:40:46.175Z,1.12
2023-03-27T05:41:46.326Z,1.12
2023-03-27T05:42:46.479Z,1.12
2023-03-27T05:43:46.628Z,1.28
2023-03-27T05:44:46.796Z,1.28
2023-03-27T05:45:46.966Z,1.44
2023-03-27T05:46:47.032Z,1.44
2023-03-27T05:47:47.298Z,1.44
2023-03-27T05:48:47.283Z,1.44
2023-03-27T05:49:47.397Z,1.28
2023-03-27T05:50:47.546Z,1.28
2023-03-27T05:51:47.691Z,1.28
2023-03-27T05:52:47.843Z,1.28
2023-03-27T05:53:47.992Z,1.44
2023-03-27T05:54:48.154Z,1.52
2023-03-27T05:55:48.298Z,1.52
2023-03-27T05:56:48.467Z,1.68
2023-03-27T05:57:48.597Z,1.52
2023-03-27T05:58:48.758Z,1.2
2023-03-27T05:59:48.908Z,1.2
2023-03-27T06:00:49.055Z,1.2
2023-03-27T06:01:49.162Z,1.44
2023-03-27T06:02:49.405Z,1.44
2023-03-27T06:03:49.586Z,1.44
2023-03-27T06:04:49.608Z,1.68
2023-03-27T06:05:49.768Z,1.68
2023-03-27T06:06:49.918Z,1.44
2023-03-27T06:07:50.064Z,1.44
2023-03-27T06:08:50.217Z,1.52
2023-03-27T06:09:50.380Z,1.2
2023-03-27T06:10:50.521Z,1.44
2023-03-27T06:11:50.675Z,1.28
2023-03-27T06:12:50.776Z,1.28
2023-03-27T06:13:50.942Z,1.12
2023-03-27T06:14:51.088Z,1.12
2023-03-27T06:15:51.233Z,1.2
2023-03-27T06:16:51.281Z,1.2
2023-03-27T06:17:51.473Z,1.12
2023-03-27T06:18:51.593Z,1.12
2023-03-27T06:19:51.741Z,1.12
2023-03-27T06:20:51.861Z,1.2
2023-03-27T06:21:51.939Z,1.2
2023-03-27T06:22:52.099Z,1.2
2023-03-27T06:23:52.195Z,1.12
2023-03-27T06:24:52.345Z,1.28
2023-03-27T06:25:52.494Z,1.2
2023-03-27T06:26:52.647Z,1.2
2023-03-27T06:27:52.798Z,1.12
2023-03-27T06:28:52.961Z,1.2
2023-03-27T06:29:53.103Z,1.12
2023-03-27T06:30:53.254Z,1.2
2023-03-27T06:31:53.356Z,1.2
2023-03-27T06:32:53.562Z,1.2
2023-03-27T06:33:53.667Z,1.28
2023-03-27T06:34:53.816Z,1.28
2023-03-27T06:35:54.030Z,1.44
2023-03-27T06:36:54.112Z,1.52
2023-03-27T06:37:54.218Z,1.6
2023-03-27T06:38:54.316Z,1.6
2023-03-27T06:39:54.503Z,1.52
2023-03-27T06:40:54.660Z,1.84
2023-03-27T06:41:55.095Z,1.84
2023-03-27T06:42:55.241Z,1.84
2023-03-27T06:43:55.402Z,1.92
2023-03-27T06:44:55.458Z,1.84
2023-03-27T06:45:55.772Z,1.84
2023-03-27T06:46:55.919Z,1.84
2023-03-27T06:47:58.844Z,1.84
2023-03-27T06:48:56.330Z,1.68
2023-03-27T06:49:55.987Z,1.6
2023-03-27T06:50:56.583Z,1.68
2023-03-27T06:51:56.194Z,1.84
2023-03-27T06:52:56.367Z,1.68
2023-03-27T06:53:56.489Z,1.52
2023-03-27T06:54:56.640Z,1.52
2023-03-27T06:55:57.233Z,1.52
2023-03-27T06:56:57.146Z,1.52
2023-03-27T06:57:57.292Z,1.52
2023-03-27T06:58:57.449Z,1.52
2023-03-27T06:59:58.518Z,1.44
2023-03-27T07:00:57.777Z,1.44
2023-03-27T07:01:57.974Z,1.28
2023-03-27T07:02:58.095Z,1.52
2023-03-27T07:03:58.404Z,1.44
2023-03-27T07:05:04.596Z,1.52
2023-03-27T07:05:58.886Z,1.52
2023-03-27T07:06:58.769Z,1.44
2023-03-27T07:08:03.226Z,1.44
2023-03-27T07:08:59.009Z,1.28
2023-03-27T07:09:59.177Z,1.28
2023-03-27T07:11:11.178Z,1.44
2023-03-27T07:11:59.417Z,1.28
2023-03-27T07:12:59.568Z,1.2
2023-03-27T07:13:59.718Z,1.28
2023-03-27T07:14:59.868Z,1.2
2023-03-27T07:16:00.002Z,1.2
2023-03-27T07:17:00.087Z,1.2
2023-03-27T07:18:00.274Z,1.28
2023-03-27T07:19:02.339Z,1.44
2023-03-27T07:20:00.519Z,2.08
2023-03-27T07:21:00.862Z,2
2023-03-27T07:22:00.822Z,1.84
2023-03-27T07:23:00.980Z,2.32
2023-03-27T07:24:01.144Z,2.48
2023-03-27T07:25:01.233Z,2.4
2023-03-27T07:26:01.394Z,2.08
2023-03-27T07:27:01.591Z,1.84
2023-03-27T07:28:01.891Z,1.84
2023-03-27T07:29:01.803Z,1.92
2023-03-27T07:30:01.958Z,2
2023-03-27T07:31:02.084Z,2
2023-03-27T07:32:07.081Z,2
2023-03-27T07:33:02.434Z,2.4
2023-03-27T07:34:02.804Z,2.24
2023-03-27T07:35:02.706Z,2
2023-03-27T07:36:03.293Z,1.6
2023-03-27T07:37:02.947Z,1.52
2023-03-27T07:38:03.050Z,1.44
2023-03-27T07:39:03.178Z,1.2
2023-03-27T07:40:03.304Z,1.2
2023-03-27T07:41:03.456Z,1.2
2023-03-27T07:42:03.615Z,1.84
2023-03-27T07:43:03.712Z,1.92
2023-03-27T07:44:03.863Z,2
2023-03-27T07:45:04.496Z,2
2023-03-27T07:46:04.138Z,2.24
2023-03-27T07:47:04.291Z,2.32
2023-03-27T07:48:04.419Z,2.88
2023-03-27T07:49:04.526Z,3.12
2023-03-27T07:50:04.670Z,2.8
2023-03-27T07:52:06.024Z,3.68
2023-03-27T07:53:05.132Z,3.52
2023-03-27T07:54:05.230Z,3.28
2023-03-27T07:55:05.388Z,2.64
2023-03-27T07:56:05.531Z,2.32
2023-03-27T07:57:05.742Z,2.08
2023-03-27T07:58:05.829Z,2.08
2023-03-27T07:59:05.939Z,1.92
2023-03-27T08:00:06.085Z,1.84
2023-03-27T08:01:06.247Z,1.68
2023-03-27T08:02:06.388Z,1.92
2023-03-27T08:03:06.744Z,1.6
2023-03-27T08:04:06.761Z,1.52
2023-03-27T08:05:06.882Z,1.84
2023-03-27T08:06:06.957Z,1.52
2023-03-27T08:07:07.099Z,1.52
2023-03-27T08:08:07.260Z,1.68
2023-03-27T08:09:07.477Z,2.08
2023-03-27T08:10:07.557Z,2.8
2023-03-27T08:11:11.486Z,3.92
2023-03-27T08:12:07.806Z,4.32
2023-03-27T08:13:07.961Z,4.48
2023-03-27T08:14:08.111Z,4.08
2023-03-27T08:15:08.263Z,4.16
2023-03-27T08:16:08.411Z,3.92
2023-03-27T08:17:15.432Z,3.44
2023-03-27T08:18:08.669Z,3.52
2023-03-27T08:19:08.812Z,3.04
2023-03-27T08:20:08.972Z,2.88
2023-03-27T08:21:09.121Z,2.64
2023-03-27T08:22:09.270Z,2.64
2023-03-27T08:23:09.425Z,2.4
2023-03-27T08:24:09.580Z,2.24
2023-03-27T08:25:09.741Z,2.48
2023-03-27T08:26:09.880Z,2.24
2023-03-27T08:27:10.023Z,2.08
2023-03-27T08:28:10.187Z,2
2023-03-27T08:29:10.342Z,1.92
2023-03-27T08:30:10.433Z,1.92
2023-03-27T08:31:10.593Z,1.92
2023-03-27T08:32:10.691Z,1.92
2023-03-27T08:33:10.875Z,2.88
2023-03-27T08:34:10.983Z,3.92
2023-03-27T08:35:11.142Z,4.08
2023-03-27T08:36:11.292Z,4.72
2023-03-27T08:37:11.389Z,6.4
2023-03-27T08:38:24.054Z,5.28
2023-03-27T08:39:11.642Z,4.88
2023-03-27T08:40:11.798Z,4.16
2023-03-27T08:41:11.951Z,4
2023-03-27T08:42:12.096Z,3.52
2023-03-27T08:43:12.261Z,3.44
2023-03-27T08:44:12.351Z,3.44
2023-03-27T08:45:12.510Z,3.28
2023-03-27T08:46:12.690Z,3.04
2023-03-27T08:47:12.801Z,3.04
2023-03-27T08:48:12.970Z,2.88
2023-03-27T08:49:13.072Z,3.04
2023-03-27T08:50:13.174Z,3.2
2023-03-27T08:51:13.316Z,3.44
2023-03-27T08:52:13.469Z,3.44
2023-03-27T08:53:13.618Z,4.16
2023-03-27T08:54:13.785Z,5.04
2023-03-27T08:55:13.919Z,5.52
2023-03-27T08:56:14.106Z,5.6
2023-03-27T08:57:14.210Z,6
2023-03-27T08:58:14.321Z,7.12
2023-03-27T08:59:16.216Z,7.04
2023-03-27T09:00:14.624Z,7.2
2023-03-27T09:01:14.761Z,7.52
2023-03-27T09:02:14.888Z,6.72
2023-03-27T09:03:15.063Z,5.92
2023-03-27T09:04:15.180Z,5.84
2023-03-27T09:05:15.330Z,6.08
2023-03-27T09:06:15.485Z,6.24
2023-03-27T09:07:15.637Z,6.64
2023-03-27T09:08:15.801Z,6.32
2023-03-27T09:09:15.956Z,6.48
2023-03-27T09:10:16.096Z,6.08
2023-03-27T09:11:16.246Z,5.44
2023-03-27T09:12:16.395Z,5.6
2023-03-27T09:13:16.544Z,5.52
2023-03-27T09:14:16.721Z,5.28
2023-03-27T09:15:16.849Z,5.84
2023-03-27T09:16:17.056Z,5.68
2023-03-27T09:17:17.115Z,6.4
2023-03-27T09:18:17.256Z,6.72
2023-03-27T09:19:17.406Z,5.92
2023-03-27T09:20:17.617Z,5.68
2023-03-27T09:21:17.769Z,5.12
2023-03-27T09:22:17.812Z,4.4
2023-03-27T09:23:19.882Z,4.16
2023-03-27T09:24:18.118Z,4.72
2023-03-27T09:25:18.263Z,4.8
2023-03-27T09:26:18.376Z,5.12
2023-03-27T09:27:18.516Z,4.88
2023-03-27T09:28:18.670Z,4.64
2023-03-27T09:29:19.835Z,4.72
2023-03-27T09:30:18.981Z,4.4
2023-03-27T09:31:19.117Z,6.32
2023-03-27T09:32:19.174Z,6.24
2023-03-27T09:33:19.332Z,6.4
2023-03-27T09:34:19.434Z,5.84
2023-03-27T09:35:19.541Z,5.04
2023-03-27T09:36:19.688Z,4.72
2023-03-27T09:37:19.831Z,4.08
2023-03-27T09:38:19.986Z,4.08
2023-03-27T09:39:20.137Z,3.6
2023-03-27T09:40:20.296Z,3.92
2023-03-27T09:41:20.449Z,3.84
2023-03-27T09:42:20.668Z,3.84
2023-03-27T09:43:22.403Z,4.08
2023-03-27T09:44:20.864Z,4.32
2023-03-27T09:45:20.953Z,4.48
2023-03-27T09:46:21.103Z,5.12
2023-03-27T09:47:21.248Z,5.68
2023-03-27T09:48:21.397Z,5.52
2023-03-27T09:49:21.551Z,6
2023-03-27T09:50:21.705Z,5.68
2023-03-27T09:51:21.864Z,6.72
2023-03-27T09:52:21.964Z,8.32
2023-03-27T09:53:22.106Z,8.639999
2023-03-27T09:54:22.260Z,7.68
2023-03-27T09:55:22.405Z,6.8
2023-03-27T09:56:22.564Z,5.84
2023-03-27T09:57:23.002Z,5.2
2023-03-27T09:58:22.830Z,4.8
2023-03-27T09:59:22.968Z,4.4
2023-03-27T10:00:23.115Z,4.4
2023-03-27T10:01:23.235Z,4.16
2023-03-27T10:02:23.325Z,4.32
2023-03-27T10:03:23.511Z,4.48
2023-03-27T10:04:23.628Z,5.04
2023-03-27T10:05:23.728Z,4.8
2023-03-27T10:06:23.831Z,5.12
2023-03-27T10:07:24.004Z,5.52
2023-03-27T10:08:26.042Z,5.2
2023-03-27T10:09:24.279Z,4.88
2023-03-27T10:10:24.457Z,4.88
2023-03-27T10:11:24.535Z,4.72
2023-03-27T10:12:24.712Z,4.64
2023-03-27T10:13:24.850Z,4.72
2023-03-27T10:14:24.957Z,5.52
2023-03-27T10:15:25.102Z,7.12
2023-03-27T10:16:25.310Z,7.84
2023-03-27T10:17:25.403Z,9.679999
2023-03-27T10:18:25.546Z,10
2023-03-27T10:19:25.707Z,9.2
2023-03-27T10:20:25.809Z,8.639999
2023-03-27T10:21:25.953Z,8.08
2023-03-27T10:22:26.059Z,9.599999
2023-03-27T10:23:26.222Z,9.36
2023-03-27T10:24:26.354Z,11.04
2023-03-27T10:25:26.510Z,10.639999
2023-03-27T10:26:26.667Z,9.12
2023-03-27T10:27:26.844Z,7.28
2023-03-27T10:28:26.962Z,7.28
2023-03-27T10:29:27.125Z,7.04
2023-03-27T10:30:27.269Z,6.4
2023-03-27T10:31:27.538Z,5.84
2023-03-27T10:32:27.659Z,5.52
2023-03-27T10:33:27.685Z,5.28
2023-03-27T10:34:27.830Z,5.44
2023-03-27T10:35:27.990Z,4.88
2023-03-27T10:36:28.078Z,4.88
2023-03-27T10:37:28.260Z,4.64
2023-03-27T10:38:28.381Z,5.12
2023-03-27T10:39:28.544Z,6.08
2023-03-27T10:40:28.681Z,6.64
2023-03-27T10:41:29.368Z,7.12
2023-03-27T10:42:28.981Z,8.08
2023-03-27T10:43:29.138Z,8.639999
2023-03-27T10:44:29.297Z,7.68
2023-03-27T10:45:29.434Z,7.92
2023-03-27T10:46:29.587Z,8.48
2023-03-27T10:47:29.783Z,8.24
2023-03-27T10:48:29.848Z,7.84
2023-03-27T10:49:30.002Z,7.12
2023-03-27T10:50:30.150Z,6.88
2023-03-27T10:51:36.124Z,6.64
2023-03-27T10:52:30.446Z,6
2023-03-27T10:53:30.632Z,5.12
2023-03-27T10:54:31.955Z,4.64
2023-03-27T10:55:30.911Z,4.16
2023-03-27T10:56:31.052Z,4.08
2023-03-27T10:57:31.163Z,5.04
2023-03-27T10:58:31.309Z,6.24
2023-03-27T10:59:40.877Z,7.04
2023-03-27T11:00:31.619Z,8.48
2023-03-27T11:01:31.785Z,9.04
2023-03-27T11:02:31.958Z,9.36
2023-03-27T11:03:32.090Z,9.599999
2023-03-27T11:04:32.215Z,9.679999
2023-03-27T11:05:33.331Z,9.92
2023-03-27T11:06:32.518Z,10.08
2023-03-27T11:07:32.666Z,10.32
2023-03-27T11:08:32.819Z,10.719999
2023-03-27T11:09:32.971Z,11.2
2023-03-27T11:10:33.128Z,11.44
2023-03-27T11:11:33.272Z,11.44
2023-03-27T11:12:33.452Z,11.2
2023-03-27T11:13:33.584Z,11.84
2023-03-27T11:14:33.728Z,12.88
2023-03-27T11:15:33.882Z,13.12
2023-03-27T11:16:34.042Z,13.12
2023-03-27T11:17:34.165Z,12.88
2023-03-27T11:18:34.241Z,11.679999
2023-03-27T11:19:34.385Z,11.04
2023-03-27T11:20:34.538Z,10.8
2023-03-27T11:21:34.689Z,9.12
2023-03-27T11:22:34.836Z,8.08
2023-03-27T11:23:34.993Z,7.92
2023-03-27T11:24:35.143Z,7.44
2023-03-27T11:25:35.260Z,7.2
2023-03-27T11:26:35.400Z,6.72
2023-03-27T11:27:35.518Z,5.92
2023-03-27T11:28:35.654Z,5.68
2023-03-27T11:29:35.798Z,5.52
2023-03-27T11:30:35.956Z,5.52
2023-03-27T11:31:36.146Z,5.04
2023-03-27T11:32:36.293Z,5.12
2023-03-27T11:33:36.439Z,5.12
2023-03-27T11:34:36.560Z,4.88
2023-03-27T11:35:36.740Z,5.28
2023-03-27T11:36:36.903Z,5.52
2023-03-27T11:37:37.014Z,5.44
2023-03-27T11:38:37.160Z,4.8
2023-03-27T11:39:37.334Z,4.4
2023-03-27T11:40:37.466Z,3.92
2023-03-27T11:41:37.623Z,4.4
2023-03-27T11:42:37.771Z,4.32
2023-03-27T11:43:37.933Z,4
2023-03-27T11:44:38.077Z,4
2023-03-27T11:45:38.241Z,3.92
2023-03-27T11:46:38.357Z,4.32
2023-03-27T11:47:38.515Z,4.16
2023-03-27T11:48:38.594Z,4.72
2023-03-27T11:49:38.735Z,5.52
2023-03-27T11:50:38.864Z,6.8
2023-03-27T11:51:38.984Z,7.44
2023-03-27T11:52:39.149Z,7.92
2023-03-27T11:53:39.357Z,9.04
2023-03-27T11:54:39.397Z,8.72
2023-03-27T11:55:39.497Z,9.04
2023-03-27T11:56:39.678Z,9.36
2023-03-27T11:57:39.793Z,9.52
2023-03-27T11:58:39.949Z,10
2023-03-27T11:59:40.092Z,10.32
2023-03-27T12:00:40.244Z,11.28
2023-03-27T12:01:40.398Z,12.48
2023-03-27T12:02:40.620Z,11.28
2023-03-27T12:03:40.734Z,9.599999
2023-03-27T12:04:40.849Z,10.88
2023-03-27T12:05:40.953Z,9.599999
2023-03-27T12:06:41.109Z,9.36
2023-03-27T12:07:46.511Z,9.04
2023-03-27T12:08:41.688Z,7.92
2023-03-27T12:09:41.561Z,7.84
2023-03-27T12:10:41.733Z,7.44
2023-03-27T12:11:41.880Z,7.28
2023-03-27T12:12:41.970Z,6.08
2023-03-27T12:13:42.798Z,5.44
2023-03-27T12:14:42.955Z,4.88
2023-03-27T12:15:42.405Z,4.48
2023-03-27T12:16:42.589Z,4.16
2023-03-27T12:17:42.694Z,4
2023-03-27T12:18:48.233Z,4.08
2023-03-27T12:19:42.996Z,4.72
2023-03-27T12:20:52.328Z,5.84
2023-03-27T12:21:43.227Z,5.28
2023-03-27T12:22:43.382Z,5.2
2023-03-27T12:23:43.509Z,5.84
2023-03-27T12:24:53.575Z,7.12
2023-03-27T12:25:43.739Z,7.92
2023-03-27T12:26:43.888Z,7.84
2023-03-27T12:27:44.037Z,7.84
2023-03-27T12:28:44.203Z,8.72
2023-03-27T12:29:44.304Z,8.88
2023-03-27T12:30:44.459Z,9.52
2023-03-27T12:31:44.649Z,9.599999
2023-03-27T12:32:44.770Z,9.04
2023-03-27T12:33:44.900Z,8.639999
2023-03-27T12:34:45.048Z,7.92
2023-03-27T12:35:46.986Z,7.04
2023-03-27T12:36:45.352Z,6.48
2023-03-27T12:37:45.502Z,6
2023-03-27T12:38:45.673Z,5.12
2023-03-27T12:39:45.807Z,4.48
2023-03-27T12:40:45.907Z,4.48
2023-03-27T12:41:46.017Z,4.32
2023-03-27T12:42:46.112Z,4.16
2023-03-27T12:43:46.266Z,4
2023-03-27T12:44:46.373Z,3.92
2023-03-27T12:45:53.365Z,3.68
2023-03-27T12:46:46.677Z,3.6
2023-03-27T12:47:46.849Z,3.68
2023-03-27T12:48:46.974Z,3.6
2023-03-27T12:49:48.314Z,3.52
2023-03-27T12:50:47.184Z,3.6
2023-03-27T12:51:47.342Z,3.6
2023-03-27T12:52:47.477Z,3.84
2023-03-27T12:53:47.625Z,4.4
2023-03-27T12:54:47.801Z,5.52
2023-03-27T12:55:47.926Z,6.24
2023-03-27T12:56:48.139Z,6.72
2023-03-27T12:57:48.278Z,7.2
2023-03-27T12:58:48.418Z,7.28
2023-03-27T12:59:48.539Z,7.6
2023-03-27T13:00:48.687Z,7.68
2023-03-27T13:01:51.980Z,7.84
2023-03-27T13:02:49.074Z,8.48
2023-03-27T13:03:49.202Z,8.48
2023-03-27T13:04:49.302Z,8.4
2023-03-27T13:05:49.495Z,9.599999
2023-03-27T13:06:49.551Z,9.36
2023-03-27T13:07:49.698Z,9.04
2023-03-27T13:08:49.850Z,8.72
2023-03-27T13:09:50.003Z,9.52
2023-03-27T13:10:50.154Z,9.92
2023-03-27T13:11:50.307Z,9.679999
2023-03-27T13:12:50.465Z,9.599999
2023-03-27T13:13:50.619Z,8.88
2023-03-27T13:14:50.768Z,7.68
2023-03-27T13:15:50.914Z,6.8
2023-03-27T13:16:51.069Z,5.84
2023-03-27T13:17:51.240Z,5.84
2023-03-27T13:18:52.222Z,5.52
2023-03-27T13:19:51.485Z,4.72
2023-03-27T13:20:51.626Z,4.64
2023-03-27T13:21:51.787Z,3.92
2023-03-27T13:22:51.933Z,3.52
2023-03-27T13:23:52.038Z,3.28
2023-03-27T13:24:52.202Z,3.52
2023-03-27T13:25:52.281Z,3.68
2023-03-27T13:26:52.430Z,4.4
2023-03-27T13:27:52.582Z,4.32
2023-03-27T13:28:52.732Z,4.32
2023-03-27T13:29:52.857Z,4.16
2023-03-27T13:30:52.982Z,4.48
2023-03-27T13:31:53.089Z,4.48
2023-03-27T13:32:53.378Z,4.72
2023-03-27T13:33:53.422Z,4.88
2023-03-27T13:34:53.566Z,6.32
2023-03-27T13:35:53.726Z,6.72
2023-03-27T13:37:05.777Z,7.44